Saffet Bey — TCUZ — position and weather

sailwx.info

Track history (hours):
 
Tides and Currents Weather Stations Pressure Air Temp Water Temp Dewpoint Dewpoint Depression Visibility Wind Speed Wind Dir Waves Ship Positions

Saffet Bey

Last reported at 2015-Aug-26 16:32 UTC. Time now 2015-Aug-29 16:57 UTC.
Position N 37°51' E 025°40'.

Length 164 m; draft 7 m.

Type: Ship (hazmat cat A). MMSI: 271000419.

Date/timePositionNaut miles runAvg speedWind from/ knotsBaromVisibWave heightAir tempDewpointWater temp
2015-Aug-26 16:32N 37°51' E 025°40'1212.8
2015-Aug-26 15:33N 37°41' E 025°30'1312.4
2015-Aug-26 14:33N 37°33' E 025°18'1212.3
2015-Aug-26 13:33N 37°25' E 025°06'1212.5
2015-Aug-26 12:33N 37°18' E 024°54'  
2015-Aug-20 15:29N 36°28' E 023°20'3314.6
2015-Aug-20 13:14N 36°46' E 023°54'1114.8
2015-Aug-20 12:32N 36°52' E 024°06'4414.8
2015-Aug-20 09:33N 37°17' E 024°51'1514.7
2015-Aug-20 08:33N 37°25' E 025°06'1514.9
2015-Aug-20 07:33N 37°35' E 025°20'1515.0
2015-Aug-20 06:33N 37°45' E 025°34'  
Track history (hours):
 
Tides and Currents Weather Stations Pressure Air Temp Water Temp Dewpoint Dewpoint Depression Visibility Wind Speed Wind Dir Waves Ship Positions

Saffet Bey

Last reported at 2015-Aug-26 16:32 UTC. Time now 2015-Aug-29 16:57 UTC.
Position N 37°51' E 025°40'.

Length 164 m; draft 7 m.

Type: Ship (hazmat cat A). MMSI: 271000419.

Date/timePositionNaut miles runAvg speedWind from/ knotsBaromVisibWave heightAir tempDewpointWater temp
2015-Aug-26 16:32N 37°51' E 025°40'1212.8
2015-Aug-26 15:33N 37°41' E 025°30'1312.4
2015-Aug-26 14:33N 37°33' E 025°18'1212.3
2015-Aug-26 13:33N 37°25' E 025°06'1212.5
2015-Aug-26 12:33N 37°18' E 024°54'  
2015-Aug-20 15:29N 36°28' E 023°20'3314.6
2015-Aug-20 13:14N 36°46' E 023°54'1114.8
2015-Aug-20 12:32N 36°52' E 024°06'4414.8
2015-Aug-20 09:33N 37°17' E 024°51'1514.7
2015-Aug-20 08:33N 37°25' E 025°06'1514.9
2015-Aug-20 07:33N 37°35' E 025°20'1515.0
2015-Aug-20 06:33N 37°45' E 025°34'  

Dump ship's entire track history